Time;durP1;ratioP1;P1;durP2;ratioP2;P2;SDS_P1;SDS_P2;PMS_P1;PMS_P2;Temp;Humidity;BMP_temperature;BMP_pressure;BME280_temperature;BME280_humidity;BME280_pressure;Samples;Min_cycle;Max_cycle;Signal;HPM_P1;HPM_P2
2021/10/04 00:00:32;;;;;;;;;1.00;1.00;;;;;14.21;59.38;100941.66;5103445;27;46078;-56
2021/10/04 00:02:57;;;;;;;;;2.00;2.00;;;;;14.16;59.39;100944.41;5103617;27;45361;-57
2021/10/04 00:05:22;;;;;;;;;1.25;1.00;;;;;14.16;59.65;100957.63;5103345;27;45343;-56
2021/10/04 00:07:48;;;;;;;;;1.75;1.75;;;;;14.13;59.19;100963.88;5103330;27;45387;-57
2021/10/04 00:10:17;;;;;;;;;1.00;1.00;;;;;14.09;59.31;100962.22;5103172;27;45384;-55
2021/10/04 00:12:43;;;;;;;;;2.00;2.00;;;;;14.09;59.54;100966.66;5103059;27;45181;-57
2021/10/04 00:15:17;;;;;;;;;1.00;1.00;;;;;14.09;59.68;100966.66;5103369;27;45276;-56
2021/10/04 00:17:43;;;;;;;;;2.00;1.00;;;;;14.03;59.48;100958.88;5103034;27;45254;-55
2021/10/04 00:20:11;;;;;;;;;2.25;1.75;;;;;14.02;59.39;100962.41;5102702;27;45430;-56
2021/10/04 00:22:38;;;;;;;;;1.75;1.50;;;;;14.00;59.38;100954.53;5084344;27;45525;-54
2021/10/04 00:25:05;;;;;;;;;0.50;0.50;;;;;13.95;59.77;100949.34;5096888;27;45421;-56
2021/10/04 00:27:31;;;;;;;;;1.50;1.50;;;;;13.92;59.47;100952.09;5077583;28;45447;-56
2021/10/04 00:29:57;;;;;;;;;1.00;1.00;;;;;13.98;59.70;100961.63;5098922;27;45370;-56
2021/10/04 00:32:22;;;;;;;;;1.00;1.00;;;;;13.94;60.13;100958.19;5097136;27;45322;-56
2021/10/04 00:34:48;;;;;;;;;3.00;1.75;;;;;13.92;59.86;100960.00;5094963;27;45308;-56
2021/10/04 00:37:13;;;;;;;;;1.75;1.75;;;;;13.89;59.73;100968.00;5100388;27;45479;-56
2021/10/04 00:39:39;;;;;;;;;2.00;2.00;;;;;13.85;59.71;100955.78;5081459;27;48373;-56
2021/10/04 00:42:04;;;;;;;;;1.00;0.75;;;;;13.88;59.96;100974.19;5083656;27;45713;-56
2021/10/04 00:44:30;;;;;;;;;3.75;2.00;;;;;13.86;59.89;100970.72;5102881;27;45373;-56
2021/10/04 00:46:55;;;;;;;;;2.00;2.00;;;;;13.85;59.33;100961.06;5102622;27;45338;-56
2021/10/04 00:49:21;;;;;;;;;2.00;2.00;;;;;13.86;59.97;100969.84;5102465;27;47411;-56
2021/10/04 00:51:46;;;;;;;;;3.00;2.00;;;;;13.79;59.58;100966.47;5102761;27;45246;-56
2021/10/04 00:54:12;;;;;;;;;1.75;1.75;;;;;13.80;60.05;100962.94;5102883;27;45589;-55
2021/10/04 00:56:38;;;;;;;;;2.25;2.00;;;;;13.79;60.09;100969.97;5063436;28;45537;-57
2021/10/04 00:59:04;;;;;;;;;2.50;1.00;;;;;13.78;59.66;100962.09;5100624;27;45921;-55
2021/10/04 01:01:30;;;;;;;;;1.00;1.00;;;;;13.75;59.98;100956.91;5084017;27;45426;-54
2021/10/04 01:03:57;;;;;;;;;3.50;1.75;;;;;13.73;59.89;100964.00;5102302;27;45257;-56
2021/10/04 01:06:23;;;;;;;;;1.25;1.00;;;;;13.72;59.67;100970.16;5102285;27;45498;-56
2021/10/04 01:08:48;;;;;;;;;4.50;2.00;;;;;13.69;60.11;100964.97;5102319;27;45924;-56
2021/10/04 01:11:14;;;;;;;;;1.25;1.00;;;;;13.67;60.11;100982.63;5102244;27;45256;-56
2021/10/04 01:13:39;;;;;;;;;1.50;1.50;;;;;13.64;60.35;100984.41;5102383;27;45180;-55
2021/10/04 01:16:05;;;;;;;;;1.75;1.75;;;;;13.63;59.90;100977.41;5102141;27;45565;-55
2021/10/04 01:18:32;;;;;;;;;2.00;2.00;;;;;13.63;59.62;100973.91;5083766;27;46383;-55
2021/10/04 01:20:57;;;;;;;;;2.00;2.00;;;;;13.54;59.94;100959.13;5101499;27;45374;-55
2021/10/04 01:23:23;;;;;;;;;1.00;1.00;;;;;13.58;60.15;100979.28;5083865;27;45451;-54
2021/10/04 01:25:48;;;;;;;;;3.00;1.50;;;;;13.56;59.98;100973.19;5102048;27;45695;-55
2021/10/04 01:28:13;;;;;;;;;1.00;1.00;;;;;13.55;59.83;100967.94;5101919;27;45302;-54
2021/10/04 01:30:39;;;;;;;;;1.25;1.00;;;;;13.55;60.15;100974.06;5101914;27;45319;-55
2021/10/04 01:33:04;;;;;;;;;2.50;1.50;;;;;13.50;59.93;100968.03;5102194;27;45509;-56
2021/10/04 01:35:30;;;;;;;;;0.75;0.75;;;;;13.52;59.96;100965.34;5083500;27;45367;-56
2021/10/04 01:37:56;;;;;;;;;1.50;1.50;;;;;13.47;60.08;100961.06;5083547;27;46155;-54
2021/10/04 01:40:22;;;;;;;;;1.75;1.25;;;;;13.48;60.07;100975.09;5101782;27;45286;-55
2021/10/04 01:42:47;;;;;;;;;3.75;1.50;;;;;13.46;60.15;100964.59;5101986;27;45241;-56
2021/10/04 01:45:18;;;;;;;;;2.50;2.25;;;;;13.44;60.51;100962.88;5101597;27;45244;-55
2021/10/04 01:47:44;;;;;;;;;2.75;2.75;;;;;13.41;60.43;100960.31;5101853;27;45340;-55
2021/10/04 01:50:11;;;;;;;;;2.00;1.00;;;;;13.42;60.14;100951.47;5101256;27;45391;-56
2021/10/04 01:52:37;;;;;;;;;1.25;1.25;;;;;13.37;60.48;100959.53;5101945;27;45338;-56
2021/10/04 01:55:04;;;;;;;;;3.00;2.00;;;;;13.33;60.18;100958.69;5083260;27;45253;-55
2021/10/04 01:57:29;;;;;;;;;2.00;0.50;;;;;13.30;60.15;100955.25;5101111;27;46184;-55
2021/10/04 01:59:54;;;;;;;;;1.00;1.00;;;;;13.31;60.32;100963.13;5101313;27;45409;-55
2021/10/04 02:02:20;;;;;;;;;2.50;2.50;;;;;13.28;60.11;100957.94;5101846;27;45566;-54
2021/10/04 02:04:45;;;;;;;;;2.75;1.75;;;;;13.26;60.35;100969.41;5101331;27;45314;-55
2021/10/04 02:07:11;;;;;;;;;1.00;1.00;;;;;13.22;60.16;100965.97;5100712;27;45421;-56
2021/10/04 02:09:36;;;;;;;;;2.00;2.00;;;;;13.22;60.36;100970.38;5101389;27;45333;-55
2021/10/04 02:12:02;;;;;;;;;3.00;3.00;;;;;13.19;60.25;100967.81;5101564;27;45323;-56
2021/10/04 02:14:28;;;;;;;;;1.75;1.75;;;;;13.19;60.57;100973.94;5101261;27;45379;-56
2021/10/04 02:16:53;;;;;;;;;1.50;1.50;;;;;13.16;60.13;100966.09;5101177;27;45442;-55
2021/10/04 02:19:18;;;;;;;;;2.00;1.00;;;;;13.18;60.31;100980.13;5101007;27;45247;-55
2021/10/04 02:21:44;;;;;;;;;2.50;1.00;;;;;13.16;60.10;100969.59;5101215;27;45996;-56
2021/10/04 02:24:12;;;;;;;;;2.00;2.00;;;;;13.12;60.62;100969.72;5101078;27;45514;-56
2021/10/04 02:26:37;;;;;;;;;1.75;1.75;;;;;13.13;60.57;100972.31;5101153;27;46244;-55
2021/10/04 02:29:03;;;;;;;;;1.50;1.50;;;;;13.09;60.27;100972.41;5100904;27;45201;-55
2021/10/04 02:31:28;;;;;;;;;4.00;2.00;;;;;13.08;60.62;100968.03;5101341;27;45723;-54
2021/10/04 02:33:54;;;;;;;;;2.00;2.00;;;;;13.03;60.75;100961.97;5082342;27;45251;-56
2021/10/04 02:36:23;;;;;;;;;2.00;1.00;;;;;13.00;60.54;100963.81;5101166;27;46154;-55
2021/10/04 02:38:50;;;;;;;;;2.25;2.00;;;;;12.99;60.51;100951.50;5100693;27;45335;-56
2021/10/04 02:41:15;;;;;;;;;1.00;1.00;;;;;12.98;60.41;100957.69;5101168;27;45406;-55
2021/10/04 02:43:41;;;;;;;;;1.25;1.00;;;;;12.97;60.84;100955.06;5100461;27;45163;-55
2021/10/04 02:46:06;;;;;;;;;2.25;2.25;;;;;12.96;60.81;100955.97;5101082;27;45203;-54
2021/10/04 02:48:32;;;;;;;;;1.75;1.75;;;;;12.94;60.22;100961.28;5100546;27;45240;-55
2021/10/04 02:50:57;;;;;;;;;0.75;0.75;;;;;12.93;60.88;100962.19;5101081;27;45308;-57
2021/10/04 02:53:22;;;;;;;;;3.00;1.75;;;;;12.90;60.85;100962.22;5100692;27;45236;-55
2021/10/04 02:55:48;;;;;;;;;3.00;2.00;;;;;12.92;60.33;100967.50;5100710;27;46143;-55
2021/10/04 02:58:13;;;;;;;;;2.50;2.50;;;;;12.90;60.59;100964.00;5100261;27;45283;-56
2021/10/04 03:00:38;;;;;;;;;2.00;1.75;;;;;12.89;60.70;100959.63;5101058;27;45389;-55
2021/10/04 03:03:05;;;;;;;;;1.00;1.00;;;;;12.84;60.62;100962.34;5100640;27;45237;-56
2021/10/04 03:05:31;;;;;;;;;2.25;1.50;;;;;12.80;60.43;100956.28;5100363;27;46195;-55
2021/10/04 03:07:57;;;;;;;;;1.25;0.75;;;;;12.81;60.54;100962.44;5100401;27;45306;-55
2021/10/04 03:10:23;;;;;;;;;2.00;1.50;;;;;12.81;60.54;100967.69;5100792;27;45407;-56
2021/10/04 03:12:48;;;;;;;;;1.75;0.50;;;;;12.78;60.73;100959.81;5100290;27;45438;-56
2021/10/04 03:15:14;;;;;;;;;1.25;1.00;;;;;12.78;60.41;100967.75;5100372;27;46115;-56
2021/10/04 03:17:39;;;;;;;;;1.00;1.00;;;;;12.76;60.55;100969.56;5100493;27;45317;-55
2021/10/04 03:20:05;;;;;;;;;2.00;2.00;;;;;12.75;60.52;100976.59;5103030;27;45369;-55
2021/10/04 03:22:30;;;;;;;;;1.50;1.00;;;;;12.71;60.78;100972.28;5103915;27;45423;-56
2021/10/04 03:24:56;;;;;;;;;2.00;2.00;;;;;12.70;60.64;100967.91;5103824;27;45988;-56
2021/10/04 03:27:21;;;;;;;;;1.75;1.75;;;;;12.70;60.55;100969.69;5103899;27;45237;-55
2021/10/04 03:29:47;;;;;;;;;1.75;1.00;;;;;12.68;60.80;100969.72;5104251;27;45213;-56
2021/10/04 03:32:12;;;;;;;;;2.00;2.00;;;;;12.68;60.65;100969.72;5103947;27;45222;-55
2021/10/04 03:34:37;;;;;;;;;3.25;2.00;;;;;12.66;60.87;100967.09;5064890;28;48183;-56
2021/10/04 03:37:03;;;;;;;;;3.75;1.75;;;;;12.63;60.58;100959.25;5100065;27;45249;-55
2021/10/04 03:39:29;;;;;;;;;3.50;1.50;;;;;12.61;60.71;100954.91;5104108;27;45331;-56
2021/10/04 03:41:55;;;;;;;;;2.00;2.00;;;;;12.60;60.46;100961.97;5103553;27;45229;-55
2021/10/04 03:44:20;;;;;;;;;4.75;2.00;;;;;12.60;60.56;100961.97;5103681;27;45422;-55
2021/10/04 03:46:45;;;;;;;;;3.00;3.00;;;;;12.59;60.57;100968.13;5103605;27;45441;-56
2021/10/04 03:49:11;;;;;;;;;3.00;1.00;;;;;12.56;60.61;100964.66;5103606;27;45707;-55
2021/10/04 03:51:36;;;;;;;;;2.00;2.00;;;;;12.58;60.67;100973.41;5103673;27;45268;-55
2021/10/04 03:54:03;;;;;;;;;1.75;1.75;;;;;12.55;60.63;100974.31;5103561;27;45339;-54
2021/10/04 03:56:28;;;;;;;;;3.00;3.00;;;;;12.55;60.62;100976.97;5103308;27;45307;-57
2021/10/04 03:58:53;;;;;;;;;3.50;1.75;;;;;12.52;60.76;100990.22;5103246;27;45704;-55
2021/10/04 04:01:19;;;;;;;;;4.50;4.00;;;;;12.52;60.78;100987.56;5103358;27;45458;-55
2021/10/04 04:03:44;;;;;;;;;1.50;1.25;;;;;12.50;60.40;100992.88;5103176;27;46164;-55
2021/10/04 04:06:10;;;;;;;;;4.00;1.50;;;;;12.50;60.61;100998.16;5103389;27;45263;-55
2021/10/04 04:08:35;;;;;;;;;2.00;2.00;;;;;12.48;60.56;100991.19;5103576;27;45170;-56
2021/10/04 04:11:02;;;;;;;;;2.50;2.50;;;;;12.48;60.82;100992.03;5103363;27;45239;-56
2021/10/04 04:13:27;;;;;;;;;4.00;2.50;;;;;12.47;60.74;100986.78;5084719;27;47305;-55
2021/10/04 04:15:53;;;;;;;;;2.00;2.00;;;;;12.46;60.60;100992.97;5103058;27;45279;-55
2021/10/04 04:18:18;;;;;;;;;1.00;0.00;;;;;12.45;60.93;100994.75;5103315;27;45238;-56
2021/10/04 04:20:44;;;;;;;;;2.75;2.00;;;;;12.45;60.90;100999.13;5102752;27;45418;-55
2021/10/04 04:23:09;;;;;;;;;3.50;2.25;;;;;12.42;60.61;100994.78;5103039;27;46290;-55
2021/10/04 04:25:34;;;;;;;;;2.75;2.00;;;;;12.41;60.70;100993.03;5103057;27;45221;-56
2021/10/04 04:28:00;;;;;;;;;17.25;15.25;;;;;12.40;60.63;101007.13;5103191;27;45635;-55
2021/10/04 04:30:27;;;;;;;;;3.25;2.25;;;;;12.41;60.92;101011.47;5102436;27;45615;-53
2021/10/04 04:32:53;;;;;;;;;2.00;2.00;;;;;12.37;60.78;101011.59;5102895;27;46213;-56
2021/10/04 04:35:19;;;;;;;;;4.50;2.00;;;;;12.34;60.71;101007.22;5102417;27;46490;-55
2021/10/04 04:37:45;;;;;;;;;1.00;1.00;;;;;12.31;60.84;101004.63;5102975;27;45391;-53
2021/10/04 04:40:14;;;;;;;;;2.75;2.00;;;;;12.33;60.72;101018.66;5102734;27;45267;-53
2021/10/04 04:42:42;;;;;;;;;3.50;2.50;;;;;12.30;60.53;101016.94;5102513;27;46049;-55
2021/10/04 04:45:10;;;;;;;;;3.00;1.50;;;;;12.30;60.65;101022.22;5102526;27;45303;-55
2021/10/04 04:47:37;;;;;;;;;3.25;2.25;;;;;12.30;60.63;101023.97;5102769;27;45319;-55
2021/10/04 04:50:07;;;;;;;;;3.25;2.25;;;;;12.21;60.63;101014.47;5102464;27;45173;-55
2021/10/04 04:52:33;;;;;;;;;3.00;3.00;;;;;12.28;60.65;101021.38;5102574;27;46865;-54
2021/10/04 04:54:58;;;;;;;;;3.25;2.75;;;;;12.28;60.65;101025.78;5102496;27;45315;-54
2021/10/04 04:57:24;;;;;;;;;2.00;2.00;;;;;12.28;60.45;101033.69;5102493;27;45445;-55
2021/10/04 04:59:49;;;;;;;;;2.00;2.00;;;;;12.27;60.46;101024.91;5102466;27;45305;-55
2021/10/04 05:02:14;;;;;;;;;3.00;3.00;;;;;12.25;60.49;101029.34;5102557;27;45941;-55
2021/10/04 05:04:40;;;;;;;;;2.00;1.00;;;;;12.28;60.54;101034.53;5102296;27;45315;-55
2021/10/04 05:07:05;;;;;;;;;1.75;1.75;;;;;12.29;60.46;101044.19;5102404;27;45208;-56
2021/10/04 05:09:31;;;;;;;;;4.75;1.75;;;;;12.30;60.37;101048.56;5102237;27;45536;-57
2021/10/04 05:11:56;;;;;;;;;3.00;3.00;;;;;12.27;60.45;101043.34;5102177;27;45363;-56
2021/10/04 05:14:21;;;;;;;;;2.00;1.00;;;;;12.29;60.60;101045.94;5083629;27;45408;-56
2021/10/04 05:16:47;;;;;;;;;1.00;1.00;;;;;12.27;60.47;101045.97;5102659;27;45232;-53
2021/10/04 05:19:13;;;;;;;;;1.00;1.00;;;;;12.28;60.61;101053.00;5102048;27;45208;-56
2021/10/04 05:21:38;;;;;;;;;1.25;1.25;;;;;12.26;60.33;101049.50;5101990;27;46538;-58
2021/10/04 05:24:05;;;;;;;;;1.25;1.25;;;;;12.26;60.54;101046.88;5101764;27;45334;-59
2021/10/04 05:26:30;;;;;;;;;3.25;2.00;;;;;12.26;60.63;101056.53;5102466;27;45349;-56
2021/10/04 05:28:55;;;;;;;;;1.75;0.00;;;;;12.23;60.51;101041.66;5083425;27;45322;-54
2021/10/04 05:31:21;;;;;;;;;2.50;2.25;;;;;12.21;60.59;101037.31;5101869;27;46149;-60
2021/10/04 05:33:46;;;;;;;;;4.75;3.00;;;;;12.22;60.58;101039.91;5101626;27;45301;-60
2021/10/04 05:36:12;;;;;;;;;1.75;1.75;;;;;12.22;60.63;101042.53;5102174;27;45263;-60
2021/10/04 05:38:37;;;;;;;;;2.25;2.25;;;;;12.23;60.49;101048.72;5101676;27;45353;-60
2021/10/04 05:41:04;;;;;;;;;2.00;2.00;;;;;12.23;60.68;101057.47;5101177;27;45593;-60
2021/10/04 05:43:30;;;;;;;;;3.75;2.00;;;;;12.15;60.70;101043.53;5100920;27;45364;-57
2021/10/04 05:45:55;;;;;;;;;2.00;1.00;;;;;12.21;60.69;101050.47;5101799;27;45256;-54
2021/10/04 05:48:20;;;;;;;;;2.00;2.00;;;;;12.20;60.56;101054.91;5101426;27;45476;-53
2021/10/04 05:50:49;;;;;;;;;1.25;1.25;;;;;12.19;60.46;101055.78;5101628;27;45420;-54
2021/10/04 05:53:14;;;;;;;;;5.50;2.00;;;;;12.15;60.58;101049.69;5101257;27;45243;-54
2021/10/04 05:55:40;;;;;;;;;1.00;1.00;;;;;12.16;60.39;101059.34;5101599;27;45306;-53
2021/10/04 05:58:06;;;;;;;;;0.50;0.00;;;;;12.12;60.32;101048.88;5101062;27;45393;-52
2021/10/04 06:00:31;;;;;;;;;3.50;1.75;;;;;12.11;60.30;101057.66;5082691;27;45453;-54
2021/10/04 06:02:56;;;;;;;;;5.75;2.25;;;;;12.09;60.64;101062.94;5101204;27;45422;-53
2021/10/04 06:05:22;;;;;;;;;3.00;1.50;;;;;12.07;60.51;101063.88;5100876;27;46829;-52
2021/10/04 06:07:47;;;;;;;;;2.00;2.00;;;;;12.05;60.48;101063.91;5101354;27;45295;-54
2021/10/04 06:10:13;;;;;;;;;2.25;2.00;;;;;12.03;60.60;101066.53;5082944;27;45399;-55
2021/10/04 06:12:40;;;;;;;;;2.50;2.00;;;;;11.99;60.46;101070.13;5101037;27;45317;-50
2021/10/04 06:15:06;;;;;;;;;1.00;1.00;;;;;11.97;60.55;101074.53;5101445;27;45365;-54
2021/10/04 06:17:31;;;;;;;;;3.00;2.00;;;;;11.96;60.44;101066.66;5100902;27;45446;-53
2021/10/04 06:19:56;;;;;;;;;3.50;2.00;;;;;11.93;60.75;101072.81;5100930;27;46273;-52
2021/10/04 06:22:23;;;;;;;;;2.00;1.00;;;;;11.89;60.72;101079.03;5100967;27;45196;-55
2021/10/04 06:24:48;;;;;;;;;1.00;1.00;;;;;11.85;60.52;101072.06;5101208;27;45286;-58
2021/10/04 06:27:14;;;;;;;;;1.75;1.50;;;;;11.84;60.66;101078.22;5100622;27;45340;-58
2021/10/04 06:29:42;;;;;;;;;1.25;1.25;;;;;11.81;60.65;101080.88;5082690;27;46273;-54
2021/10/04 06:32:07;;;;;;;;;2.00;2.00;;;;;11.84;60.60;101094.00;5100955;27;45382;-54
2021/10/04 06:34:32;;;;;;;;;4.75;4.00;;;;;11.83;60.67;101087.00;5100812;27;45296;-52
2021/10/04 06:36:58;;;;;;;;;3.00;3.00;;;;;11.79;60.52;101090.59;5100907;27;45273;-53
2021/10/04 06:39:23;;;;;;;;;3.00;3.00;;;;;11.82;60.57;101103.69;5100860;27;46016;-54
2021/10/04 06:41:48;;;;;;;;;2.00;2.00;;;;;11.84;60.58;101107.19;5100814;27;45295;-54
2021/10/04 06:44:14;;;;;;;;;3.50;1.25;;;;;11.81;60.63;101110.72;5100963;27;45331;-54
2021/10/04 06:46:39;;;;;;;;;3.75;3.00;;;;;11.83;60.80;101108.06;5100819;27;45480;-54
2021/10/04 06:49:05;;;;;;;;;2.75;2.75;;;;;11.82;60.52;101114.22;5100679;27;45386;-53
2021/10/04 06:51:31;;;;;;;;;3.25;2.00;;;;;11.79;60.54;101103.75;5100689;27;45320;-54
2021/10/04 06:53:57;;;;;;;;;2.75;2.75;;;;;11.77;60.70;101108.16;5100618;27;45314;-54
2021/10/04 06:56:22;;;;;;;;;2.00;2.00;;;;;11.79;60.58;101111.66;5100484;27;45582;-53
2021/10/04 06:58:47;;;;;;;;;3.00;3.00;;;;;11.78;60.95;101110.75;5081641;27;47454;-55
2021/10/04 07:01:13;;;;;;;;;5.75;3.00;;;;;11.77;60.83;101101.09;5100446;27;45270;-53
2021/10/04 07:03:38;;;;;;;;;2.75;2.00;;;;;11.77;60.75;101110.78;5100398;27;45417;-53
2021/10/04 07:06:04;;;;;;;;;3.00;2.00;;;;;11.80;60.99;101116.03;5100648;27;45260;-53
2021/10/04 07:08:30;;;;;;;;;5.00;2.75;;;;;11.81;60.73;101123.00;5082222;27;47030;-53
2021/10/04 07:10:55;;;;;;;;;3.50;2.50;;;;;11.81;60.86;101123.91;5100440;27;45603;-54
2021/10/04 07:13:21;;;;;;;;;5.25;3.25;;;;;11.83;60.96;101123.88;5100439;27;45450;-53
2021/10/04 07:15:46;;;;;;;;;4.25;3.00;;;;;11.87;60.91;101129.09;5100339;27;45286;-54
2021/10/04 07:18:12;;;;;;;;;4.00;3.50;;;;;11.90;60.88;101138.72;5100072;27;46068;-52
2021/10/04 07:20:37;;;;;;;;;8.25;4.50;;;;;11.89;60.98;101139.59;5099776;27;45319;-54
2021/10/04 07:23:04;;;;;;;;;5.50;4.00;;;;;11.92;60.96;101147.44;5082079;27;45393;-53
2021/10/04 07:25:30;;;;;;;;;2.75;2.75;;;;;11.95;61.02;101142.16;5100075;27;45454;-52
2021/10/04 07:27:56;;;;;;;;;4.50;3.00;;;;;11.96;61.08;101148.31;5100059;27;46313;-51
2021/10/04 07:30:21;;;;;;;;;3.50;2.00;;;;;11.97;61.05;101155.31;5081698;27;45332;-54
2021/10/04 07:32:47;;;;;;;;;2.25;2.25;;;;;12.01;60.88;101152.63;5100363;27;45682;-54
2021/10/04 07:35:12;;;;;;;;;4.00;2.50;;;;;11.99;61.03;101154.41;5099722;27;45293;-54
2021/10/04 07:37:38;;;;;;;;;6.25;6.25;;;;;12.02;61.12;101143.84;5099899;27;46152;-53
2021/10/04 07:40:05;;;;;;;;;2.75;2.00;;;;;12.06;61.00;101134.09;5099907;27;45760;-52
2021/10/04 07:42:31;;;;;;;;;2.00;2.00;;;;;12.07;61.09;101140.25;5100113;27;45357;-52
2021/10/04 07:44:56;;;;;;;;;4.75;3.00;;;;;12.09;61.03;101143.72;5099741;27;45430;-54
2021/10/04 07:47:22;;;;;;;;;5.25;4.25;;;;;12.11;61.27;101134.06;5100060;27;46203;-54
2021/10/04 07:49:47;;;;;;;;;5.50;2.50;;;;;12.15;61.15;101141.91;5099621;27;45342;-53
2021/10/04 07:52:14;;;;;;;;;2.50;2.50;;;;;12.18;61.21;101155.00;5100074;27;45380;-53
2021/10/04 07:54:39;;;;;;;;;2.75;2.75;;;;;12.24;61.38;101159.34;5099759;27;46143;-54
2021/10/04 07:57:05;;;;;;;;;4.25;2.00;;;;;12.28;61.38;101158.41;5080915;27;47385;-54
2021/10/04 07:59:30;;;;;;;;;5.50;4.00;;;;;12.34;61.24;101157.44;5079004;27;45262;-54
2021/10/04 08:01:56;;;;;;;;;4.00;3.00;;;;;12.38;61.32;101159.13;5099820;27;45426;-53
2021/10/04 08:04:21;;;;;;;;;1.25;1.25;;;;;12.41;61.05;101166.13;5099620;27;45490;-54
2021/10/04 08:06:46;;;;;;;;;2.75;2.75;;;;;12.46;61.47;101167.78;5084861;27;45274;-53
2021/10/04 08:09:12;;;;;;;;;38.50;33.75;;;;;12.55;61.48;101164.13;5103014;27;45234;-54
2021/10/04 08:11:37;;;;;;;;;4.75;2.75;;;;;12.56;61.38;101165.88;5103479;27;45628;-52
2021/10/04 08:14:03;;;;;;;;;3.25;2.00;;;;;12.65;61.22;101172.78;5103087;27;45406;-52
2021/10/04 08:16:28;;;;;;;;;3.50;3.50;;;;;12.70;61.29;101173.56;5103094;27;45212;-53
2021/10/04 08:18:54;;;;;;;;;5.75;2.25;;;;;12.76;61.59;101177.88;5084392;27;45262;-54
2021/10/04 08:21:21;;;;;;;;;3.25;3.00;;;;;12.83;61.19;101174.25;5103180;27;45239;-53
2021/10/04 08:23:49;;;;;;;;;4.25;1.75;;;;;12.88;61.02;101182.97;5103039;27;45473;-54
2021/10/04 08:26:15;;;;;;;;;2.50;2.50;;;;;12.93;61.20;101180.22;5102893;27;46223;-54
2021/10/04 08:28:41;;;;;;;;;2.50;2.00;;;;;12.98;61.03;101183.66;5102890;27;45161;-55
2021/10/04 08:31:06;;;;;;;;;2.25;2.00;;;;;13.06;61.32;101173.00;5084800;27;45293;-52
2021/10/04 08:33:33;;;;;;;;;3.50;2.25;;;;;13.13;61.41;101171.97;5102740;27;45216;-54
2021/10/04 08:35:58;;;;;;;;;1.00;1.00;;;;;13.20;61.11;101170.97;5102717;27;45199;-54
2021/10/04 08:38:28;;;;;;;;;4.00;2.50;;;;;13.27;61.14;101163.78;5102590;27;45181;-54
2021/10/04 08:40:54;;;;;;;;;1.00;1.00;;;;;13.32;61.39;101161.97;5103075;27;45496;-53
2021/10/04 08:43:20;;;;;;;;;2.75;1.50;;;;;13.44;60.86;101168.78;5102458;27;45248;-53
2021/10/04 08:45:45;;;;;;;;;1.00;1.00;;;;;13.46;61.34;101159.94;5102501;27;45297;-53
2021/10/04 08:48:12;;;;;;;;;1.25;1.25;;;;;13.59;61.40;101165.00;5102433;27;45265;-53
2021/10/04 08:50:38;;;;;;;;;1.00;0.75;;;;;13.65;61.10;101168.38;5102958;27;45292;-52
2021/10/04 08:53:04;;;;;;;;;3.00;1.50;;;;;13.79;61.21;101161.94;5084456;27;45181;-54
2021/10/04 08:55:30;;;;;;;;;3.00;1.00;;;;;13.89;60.67;101167.91;5102212;27;46120;-54
2021/10/04 08:57:56;;;;;;;;;4.00;2.00;;;;;13.97;61.27;101164.19;5102073;27;45309;-54
2021/10/04 09:00:22;;;;;;;;;3.25;2.50;;;;;14.10;60.72;101166.53;5102771;27;45462;-52
2021/10/04 09:02:48;;;;;;;;;3.75;1.00;;;;;14.21;60.85;101164.53;5102375;27;45406;-54
2021/10/04 09:05:26;;;;;;;;;3.00;2.00;;;;;14.28;61.44;101163.50;5102131;27;46607;-54
2021/10/04 09:07:56;;;;;;;;;1.00;1.00;;;;;14.41;61.04;101160.56;5102208;27;45195;-54
2021/10/04 09:10:23;;;;;;;;;2.00;2.00;;;;;14.53;60.87;101160.28;5102516;27;45334;-54
2021/10/04 09:12:58;;;;;;;;;2.00;1.00;;;;;14.62;61.34;101161.84;5102074;27;45568;-52
2021/10/04 09:15:27;;;;;;;;;3.25;1.00;;;;;14.75;61.23;101173.03;5102085;27;46198;-55
2021/10/04 09:17:52;;;;;;;;;1.00;1.00;;;;;14.87;61.41;101167.44;5102019;27;45215;-52
2021/10/04 09:20:19;;;;;;;;;0.75;0.75;;;;;14.97;60.78;101153.94;5102028;27;45483;-54
2021/10/04 09:22:44;;;;;;;;;0.25;0.25;;;;;15.09;60.97;101148.34;5101995;27;45174;-53
2021/10/04 09:25:10;;;;;;;;;0.50;0.50;;;;;15.20;60.93;101156.84;5101959;27;45475;-54
2021/10/04 09:27:37;;;;;;;;;1.50;0.50;;;;;15.31;61.32;101156.59;5102012;27;45606;-54
2021/10/04 09:30:18;;;;;;;;;1.75;1.00;;;;;15.44;61.00;101154.44;5102269;27;45326;-54
2021/10/04 09:32:46;;;;;;;;;1.25;1.25;;;;;15.56;61.00;101159.41;5101993;27;45252;-54
2021/10/04 09:35:30;;;;;;;;;2.25;1.00;;;;;15.70;60.66;101155.50;5101399;27;46668;-53
2021/10/04 09:37:58;;;;;;;;;2.25;1.00;;;;;15.77;60.75;101157.94;5101902;27;45195;-54
2021/10/04 09:40:32;;;;;;;;;3.00;0.67;;;;;15.84;60.69;101157.78;5101789;27;45366;-54
2021/10/04 09:42:59;;;;;;;;;0.00;0.00;;;;;15.94;61.05;101153.94;5083334;27;45378;-54
2021/10/04 09:45:25;;;;;;;;;1.33;1.33;;;;;16.05;60.76;101170.38;5101353;27;46958;-53
2021/10/04 09:47:52;;;;;;;;;1.00;1.00;;;;;16.08;60.67;101151.72;5101720;27;45268;-54
2021/10/04 09:50:24;;;;;;;;;1.00;1.00;;;;;16.20;60.83;101160.22;5083459;27;45500;-54
2021/10/04 09:53:01;;;;;;;;;5.00;1.75;;;;;16.29;60.40;101151.09;5101749;27;45341;-54
2021/10/04 09:55:28;;;;;;;;;0.67;0.00;;;;;16.39;59.98;101157.88;5101476;27;46540;-54
2021/10/04 09:58:12;;;;;;;;;1.00;1.00;;;;;16.47;60.37;101147.88;5101031;27;45186;-54
2021/10/04 10:00:59;;;;;;;;;0.67;0.00;;;;;16.62;60.43;101148.31;5101707;27;45236;-54
2021/10/04 10:03:28;;;;;;;;;1.00;1.00;;;;;16.72;60.21;101147.94;5101111;27;45552;-55
2021/10/04 10:05:59;;;;;;;;;0.67;0.67;;;;;16.82;60.23;101151.16;5101486;27;46049;-54
2021/10/04 10:08:26;;;;;;;;;3.75;2.50;;;;;16.94;60.32;101157.00;5101436;27;45425;-54
2021/10/04 10:10:57;;;;;;;;;2.33;1.00;;;;;17.05;60.03;101144.22;5101478;27;45425;-54
2021/10/04 10:13:24;;;;;;;;;1.00;1.00;;;;;17.14;60.05;101151.84;5101273;27;45229;-56
2021/10/04 10:16:01;;;;;;;;;2.00;0.00;;;;;17.25;60.14;101145.31;5101179;27;46100;-55
2021/10/04 10:18:31;;;;;;;;;1.00;1.00;;;;;17.35;60.00;101142.25;5100932;27;45360;-55
2021/10/04 10:21:06;;;;;;;;;1.00;1.00;;;;;17.47;59.86;101146.25;5101128;27;45288;-54
2021/10/04 10:24:04;;;;;;;;;3.00;0.00;;;;;17.61;59.98;101134.25;5101077;27;45535;-55
2021/10/04 10:26:39;;;;;;;;;1.67;0.67;;;;;17.73;59.83;101141.75;5070413;27;46372;-57
2021/10/04 10:29:16;;;;;;;;;0.33;0.33;;;;;17.86;59.75;101144.81;5078672;28;45647;-55
2021/10/04 10:31:50;;;;;;;;;2.00;1.00;;;;;17.97;59.99;101139.97;5093180;27;45348;-55
2021/10/04 10:34:43;;;;;;;;;1.00;1.00;;;;;18.09;59.71;101148.44;5100807;27;45532;-55
2021/10/04 10:37:16;;;;;;;;;3.00;2.00;;;;;18.17;59.98;101143.66;5096885;27;46200;-55
2021/10/04 10:39:58;;;;;;;;;0.67;0.00;;;;;18.27;59.27;101152.16;5100965;27;45299;-55
2021/10/04 10:42:34;;;;;;;;;1.00;1.00;;;;;18.38;59.18;101149.03;5082635;27;45393;-55
2021/10/04 10:45:00;;;;;;;;;1.50;1.00;;;;;18.48;59.16;101151.28;5100573;27;45593;-57
2021/10/04 10:47:37;;;;;;;;;1.67;0.00;;;;;18.55;59.00;101149.22;5100677;27;46101;-55
2021/10/04 10:50:11;;;;;;;;;1.00;1.00;;;;;18.62;59.05;101157.81;5100660;27;45226;-56
2021/10/04 10:52:44;;;;;;;;;0.00;0.00;;;;;18.70;58.78;101149.53;5100982;27;45489;-55
2021/10/04 10:55:18;;;;;;;;;0.00;0.00;;;;;18.74;59.17;101156.44;5078824;28;45413;-55
2021/10/04 10:57:59;;;;;;;;;2.67;1.00;;;;;18.82;58.68;101149.00;5093123;27;46080;-55
2021/10/04 11:00:31;;;;;;;;;1.00;0.00;;;;;18.90;59.00;101146.91;5088780;27;45307;-55
2021/10/04 11:03:04;;;;;;;;;1.75;1.75;;;;;18.95;58.97;101144.91;5100599;27;45301;-55
2021/10/04 11:05:38;;;;;;;;;3.50;2.00;;;;;19.03;58.47;101144.59;5100374;27;45537;-56
2021/10/04 11:08:12;;;;;;;;;1.00;1.00;;;;;19.08;58.25;101141.72;5100085;27;46185;-55
2021/10/04 11:10:49;;;;;;;;;2.67;0.67;;;;;19.16;58.33;101143.13;5100425;27;45465;-55
2021/10/04 11:13:25;;;;;;;;;2.33;1.00;;;;;19.23;58.06;101134.84;5100445;27;45364;-55
2021/10/04 11:15:52;;;;;;;;;5.67;1.00;;;;;19.20;58.55;101127.00;5100206;27;45244;-55
2021/10/04 11:18:18;;;;;;;;;0.00;0.00;;;;;19.28;57.99;101140.84;5099955;27;45317;-55
2021/10/04 11:20:43;;;;;;;;;0.67;0.00;;;;;19.33;57.71;101134.38;5100217;27;45279;-56
2021/10/04 11:23:16;;;;;;;;;2.00;0.00;;;;;19.36;58.16;101135.16;5100262;27;45231;-54